Portada
METAR-TAF:

METAR-TAF

Aeroports :

Haikou, Xina

latitud: 19-56-05N, longitud: 110-27-32E, altitud: 23 m

Observació

L'informe es va fer fa 29 minuts, a les 20:00 UTC
Vent 2 kt del Oest/Sud-Oest
Temperatura 22°C
Humitat 88%
Pressió 1014 hPa
Visibilitat 10 km o més
sense núvols per sota de 1500 mi sense presència de cumulonimbus.

METAR: ZJHK 222000Z 25001MPS CAVOK 22/20 Q1014 NOSIG

Hora: 04:29 (20:29 UTC)

Pronòstic

L'informe es va fer fa 7 hores i 24 minuts, a les 13:05 UTC
Pronòstic vàlid del 22 a les 18 UTC al 23 a les 18 UTC
Vent 8 kt del Est/Nord-Est
Visibilitat: 5000 m
Núvols disperses a una alçada de 2000 ft
boirina

TAF: ZJHK 221305Z 2218/2318 06004MPS 5000 BR SCT020 TX30/2306Z TN21/2221Z

Observacions i pronòstics meteorològics de més de 4000 aeroports (METAR i TAF).

Les estacions disponibles són els punts grocs i vermells al mapa.

Posi el ratolí al punt desitjat per veure el nom de l'estació.

Feu clic per veure les observacions i els pronòstics meteorològics.

Per canviar el mapa: feu clic els botons verds amb una creu de color negre per apropar; al botó verd amb un guió per allunyar la imatge; o en les fletxes verdes per a mapes adjacents.


METAR-TAF: